createdAt,value
2018-09-15T00:00:58.838Z,8.13
2018-09-15T00:02:03.010Z,10.95
2018-09-15T00:03:07.462Z,11.03
2018-09-15T00:04:11.668Z,18.65
2018-09-15T00:05:15.822Z,11.48
2018-09-15T00:06:20.011Z,8.55
2018-09-15T00:07:24.167Z,5.62
2018-09-15T00:08:28.693Z,9.45
2018-09-15T00:09:32.880Z,15.13
2018-09-15T00:10:37.069Z,8.08
2018-09-15T00:11:41.235Z,10.93
2018-09-15T00:12:45.434Z,7.33
2018-09-15T00:13:49.924Z,11.80
2018-09-15T00:14:54.079Z,8.90
2018-09-15T00:15:58.483Z,14.43
2018-09-15T00:17:02.745Z,10.15
2018-09-15T00:18:09.851Z,10.93
2018-09-15T00:19:14.184Z,11.12
2018-09-15T00:20:18.384Z,10.45
2018-09-15T00:21:22.625Z,13.95
2018-09-15T00:22:26.768Z,10.18
2018-09-15T00:23:31.051Z,7.20
2018-09-15T00:24:35.485Z,13.40
2018-09-15T00:25:40.355Z,9.50
2018-09-15T00:26:44.543Z,7.62
2018-09-15T00:27:48.687Z,12.53
2018-09-15T00:28:52.854Z,8.33
2018-09-15T00:29:57.053Z,7.60
2018-09-15T00:31:01.235Z,9.33
2018-09-15T00:32:05.417Z,11.83
2018-09-15T00:33:09.601Z,12.78
2018-09-15T00:34:13.814Z,10.72
2018-09-15T00:35:18.032Z,6.97
2018-09-15T00:36:22.228Z,10.98
2018-09-15T00:37:26.639Z,10.90
2018-09-15T00:38:31.064Z,12.07
2018-09-15T00:39:35.252Z,9.45
2018-09-15T00:40:39.455Z,12.05
2018-09-15T00:41:43.803Z,8.40
2018-09-15T00:42:48.059Z,6.70
2018-09-15T00:43:52.248Z,9.28
2018-09-15T00:44:56.583Z,6.15
2018-09-15T00:46:00.746Z,9.10
2018-09-15T00:47:04.994Z,7.55
2018-09-15T00:48:09.358Z,11.03
2018-09-15T00:49:13.527Z,5.37
2018-09-15T00:50:17.713Z,6.65
2018-09-15T00:51:21.885Z,13.38
2018-09-15T00:52:26.038Z,10.08
2018-09-15T00:53:30.175Z,5.78
2018-09-15T00:54:34.634Z,9.95
2018-09-15T00:55:38.762Z,13.70
2018-09-15T00:56:42.946Z,5.30
2018-09-15T00:57:47.149Z,5.12
2018-09-15T00:58:51.331Z,7.90
2018-09-15T00:59:55.481Z,7.37
2018-09-15T01:00:59.694Z,7.35
2018-09-15T01:02:03.877Z,8.03
2018-09-15T01:03:08.274Z,7.45
2018-09-15T01:04:12.465Z,5.97
2018-09-15T01:05:18.259Z,6.10
2018-09-15T01:06:22.431Z,5.65
2018-09-15T01:07:26.610Z,10.40
2018-09-15T01:08:30.763Z,18.00
2018-09-15T01:09:34.973Z,7.28
2018-09-15T01:10:39.159Z,9.93
2018-09-15T01:11:43.349Z,7.35
2018-09-15T01:12:47.532Z,7.35
2018-09-15T01:13:51.839Z,12.40
2018-09-15T01:14:55.918Z,5.20
2018-09-15T01:16:04.437Z,7.33
2018-09-15T01:17:08.615Z,7.37
2018-09-15T01:18:12.782Z,5.55
2018-09-15T01:19:16.942Z,6.50
2018-09-15T01:20:21.158Z,9.38
2018-09-15T01:21:25.458Z,6.85
2018-09-15T01:22:29.663Z,9.90
2018-09-15T01:23:34.316Z,5.75
2018-09-15T01:24:38.654Z,6.90
2018-09-15T01:25:42.793Z,6.78
2018-09-15T01:26:46.971Z,4.85
2018-09-15T01:27:51.313Z,5.00
2018-09-15T01:28:55.648Z,4.35
2018-09-15T01:29:59.957Z,7.40
2018-09-15T01:31:04.099Z,7.90
2018-09-15T01:32:08.276Z,11.12
2018-09-15T01:33:12.438Z,7.22
2018-09-15T01:34:16.681Z,4.92
2018-09-15T01:35:20.785Z,3.95
2018-09-15T01:36:24.982Z,5.42
2018-09-15T01:37:29.118Z,7.37
2018-09-15T01:38:33.292Z,6.35
2018-09-15T01:39:37.788Z,6.17
2018-09-15T01:40:42.008Z,10.03
2018-09-15T01:41:46.108Z,8.33
2018-09-15T01:42:50.268Z,7.58
2018-09-15T01:43:54.435Z,5.30
2018-09-15T01:44:58.828Z,12.23
2018-09-15T01:46:03.075Z,9.10
2018-09-15T01:47:07.259Z,11.15
2018-09-15T01:48:11.442Z,10.85
2018-09-15T01:49:15.562Z,9.48
2018-09-15T01:50:19.958Z,9.30
2018-09-15T01:51:24.290Z,16.27
2018-09-15T01:52:28.491Z,10.08
2018-09-15T01:53:32.635Z,15.93
2018-09-15T01:54:36.778Z,14.33
2018-09-15T01:55:41.014Z,13.15
2018-09-15T01:56:45.103Z,14.70
2018-09-15T01:57:49.599Z,10.32
2018-09-15T01:58:53.864Z,11.88
2018-09-15T01:59:58.112Z,18.60
2018-09-15T02:01:02.314Z,17.48
2018-09-15T02:02:06.507Z,15.38
2018-09-15T02:03:10.660Z,14.05
2018-09-15T02:04:14.829Z,23.32
2018-09-15T02:05:18.962Z,13.22
2018-09-15T02:06:23.147Z,26.10
2018-09-15T02:07:27.341Z,17.95
2018-09-15T02:08:31.491Z,10.93
2018-09-15T02:09:35.751Z,15.18
2018-09-15T02:10:39.957Z,12.00
2018-09-15T02:11:44.811Z,10.05
2018-09-15T02:12:48.958Z,12.20
2018-09-15T02:13:53.102Z,14.05
2018-09-15T02:14:57.307Z,22.20
2018-09-15T02:16:01.450Z,17.25
2018-09-15T02:17:05.634Z,22.77
2018-09-15T02:18:09.777Z,12.73
2018-09-15T02:19:14.008Z,12.25
2018-09-15T02:20:18.190Z,9.38
2018-09-15T02:21:22.417Z,13.45
2018-09-15T02:22:26.639Z,12.15
2018-09-15T02:23:30.758Z,11.73
2018-09-15T02:24:34.964Z,12.65
2018-09-15T02:25:39.720Z,10.63
2018-09-15T02:26:44.028Z,9.70
2018-09-15T02:27:48.262Z,17.82
2018-09-15T02:28:52.469Z,10.68
2018-09-15T02:29:56.672Z,7.62
2018-09-15T02:31:00.981Z,9.83
2018-09-15T02:32:05.288Z,7.80
2018-09-15T02:33:09.445Z,9.08
2018-09-15T02:34:13.591Z,8.05
2018-09-15T02:35:17.796Z,7.28
2018-09-15T02:36:21.982Z,8.18
2018-09-15T02:37:26.139Z,6.30
2018-09-15T02:38:30.318Z,4.83
2018-09-15T02:39:34.675Z,5.78
2018-09-15T02:40:38.833Z,5.50
2018-09-15T02:41:43.004Z,4.08
2018-09-15T02:42:47.264Z,4.40
2018-09-15T02:43:51.566Z,3.60
2018-09-15T02:44:55.723Z,6.92
2018-09-15T02:45:59.955Z,4.10
2018-09-15T02:47:04.161Z,3.92
2018-09-15T02:48:08.290Z,6.75
2018-09-15T02:49:12.469Z,3.87
2018-09-15T02:50:16.626Z,3.77
2018-09-15T02:51:20.799Z,3.83
2018-09-15T02:52:24.952Z,6.40
2018-09-15T02:53:29.285Z,6.33
2018-09-15T02:54:33.475Z,5.55
2018-09-15T02:55:37.643Z,9.63
2018-09-15T02:56:41.929Z,5.70
2018-09-15T02:57:46.243Z,13.48
2018-09-15T02:58:50.434Z,6.42
2018-09-15T02:59:54.606Z,6.87
2018-09-15T03:00:58.840Z,3.42
2018-09-15T03:02:02.999Z,3.58
2018-09-15T03:03:07.385Z,6.58
2018-09-15T03:04:11.494Z,10.28
2018-09-15T03:05:15.803Z,5.87
2018-09-15T03:06:20.000Z,4.08
2018-09-15T03:07:24.137Z,5.47
2018-09-15T03:08:28.468Z,4.28
2018-09-15T03:09:32.686Z,4.12
2018-09-15T03:10:36.876Z,6.35
2018-09-15T03:11:41.176Z,6.42
2018-09-15T03:12:45.342Z,4.60
2018-09-15T03:13:49.504Z,6.42
2018-09-15T03:14:53.687Z,3.55
2018-09-15T03:15:57.918Z,5.45
2018-09-15T03:17:02.113Z,4.58
2018-09-15T03:18:06.395Z,9.13
2018-09-15T03:19:10.543Z,5.10
2018-09-15T03:20:14.702Z,4.10
2018-09-15T03:21:18.914Z,7.37
2018-09-15T03:22:23.918Z,8.63
2018-09-15T03:23:28.263Z,4.17
2018-09-15T03:24:32.437Z,5.00
2018-09-15T03:25:37.020Z,4.92
2018-09-15T03:26:41.349Z,4.05
2018-09-15T03:27:45.518Z,13.30
2018-09-15T03:28:49.711Z,7.03
2018-09-15T03:29:54.046Z,6.50
2018-09-15T03:30:58.204Z,10.38
2018-09-15T03:32:02.394Z,3.52
2018-09-15T03:33:06.823Z,5.42
2018-09-15T03:34:10.962Z,4.83
2018-09-15T03:35:15.137Z,9.05
2018-09-15T03:36:19.274Z,9.55
2018-09-15T03:37:23.438Z,5.75
2018-09-15T03:38:27.608Z,11.20
2018-09-15T03:39:31.775Z,6.10
2018-09-15T03:40:35.918Z,15.55
2018-09-15T03:41:40.413Z,6.20
2018-09-15T03:42:44.605Z,8.68
2018-09-15T03:43:49.033Z,7.70
2018-09-15T03:44:53.190Z,5.92
2018-09-15T03:45:57.339Z,7.00
2018-09-15T03:47:01.470Z,9.00
2018-09-15T03:48:05.663Z,9.80
2018-09-15T03:49:09.852Z,8.50
2018-09-15T03:50:14.209Z,11.45
2018-09-15T03:51:18.371Z,7.97
2018-09-15T03:52:22.621Z,13.83
2018-09-15T03:53:26.999Z,3.02
2018-09-15T03:54:31.191Z,14.90
2018-09-15T03:55:35.543Z,7.90
2018-09-15T03:56:39.682Z,5.70
2018-09-15T03:57:43.920Z,11.30
2018-09-15T03:58:48.123Z,8.78
2018-09-15T03:59:52.312Z,5.75
2018-09-15T04:00:56.437Z,13.48
2018-09-15T04:02:00.619Z,10.32
2018-09-15T04:03:04.783Z,6.33
2018-09-15T04:04:09.334Z,13.43
2018-09-15T04:05:13.455Z,18.00
2018-09-15T04:06:17.615Z,9.83
2018-09-15T04:07:21.758Z,8.83
2018-09-15T04:08:26.006Z,7.80
2018-09-15T04:09:30.183Z,15.18
2018-09-15T04:10:34.330Z,13.32
2018-09-15T04:11:38.580Z,9.75
2018-09-15T04:12:42.759Z,12.10
2018-09-15T04:13:46.896Z,9.30
2018-09-15T04:14:51.079Z,10.25
2018-09-15T04:15:55.241Z,8.48
2018-09-15T04:16:59.440Z,8.93
2018-09-15T04:18:03.601Z,11.38
2018-09-15T04:19:07.892Z,12.20
2018-09-15T04:20:12.159Z,7.47
2018-09-15T04:21:16.468Z,12.10
2018-09-15T04:22:20.640Z,14.53
2018-09-15T04:23:24.863Z,8.15
2018-09-15T04:24:28.995Z,14.63
2018-09-15T04:25:33.223Z,10.50
2018-09-15T04:26:37.562Z,14.30
2018-09-15T04:27:42.116Z,19.60
2018-09-15T04:28:46.246Z,27.25
2018-09-15T04:29:50.403Z,18.52
2018-09-15T04:30:54.599Z,19.73
2018-09-15T04:31:58.762Z,12.75
2018-09-15T04:33:02.901Z,13.70
2018-09-15T04:34:07.129Z,18.92
2018-09-15T04:35:11.266Z,17.87
2018-09-15T04:36:15.540Z,16.60
2018-09-15T04:37:19.671Z,15.40
2018-09-15T04:38:23.834Z,12.73
2018-09-15T04:39:27.998Z,23.35
2018-09-15T04:40:32.204Z,15.83
2018-09-15T04:41:36.387Z,17.62
2018-09-15T04:42:40.522Z,9.25
2018-09-15T04:43:44.649Z,17.30
2018-09-15T04:44:48.807Z,15.63
2018-09-15T04:45:52.954Z,21.15
2018-09-15T04:46:57.126Z,14.05
2018-09-15T04:48:01.291Z,15.70
2018-09-15T04:49:05.706Z,23.02
2018-09-15T04:50:09.842Z,12.07
2018-09-15T04:51:14.090Z,19.17
2018-09-15T04:52:18.265Z,13.50
2018-09-15T04:53:22.398Z,10.20
2018-09-15T04:54:26.595Z,14.10
2018-09-15T04:55:30.823Z,17.20
2018-09-15T04:56:34.946Z,19.30
2018-09-15T04:57:39.233Z,12.75
2018-09-15T04:58:43.411Z,13.90
2018-09-15T04:59:47.540Z,22.20
2018-09-15T05:00:51.689Z,22.22
2018-09-15T05:01:55.843Z,10.98
2018-09-15T05:03:00.027Z,13.95
2018-09-15T05:04:04.179Z,7.95
2018-09-15T05:05:08.367Z,16.80
2018-09-15T05:06:12.567Z,15.05
2018-09-15T05:07:16.772Z,11.40
2018-09-15T05:08:20.979Z,12.93
2018-09-15T05:09:25.102Z,11.83
2018-09-15T05:10:29.283Z,12.10
2018-09-15T05:11:33.423Z,10.80
2018-09-15T05:12:37.820Z,18.40
2018-09-15T05:13:41.753Z,11.03
2018-09-15T05:14:46.127Z,13.58
2018-09-15T05:15:50.259Z,8.45
2018-09-15T05:16:54.382Z,13.20
2018-09-15T05:17:58.578Z,13.15
2018-09-15T05:19:02.732Z,17.85
2018-09-15T05:20:06.871Z,16.57
2018-09-15T05:21:10.996Z,9.15
2018-09-15T05:22:15.130Z,16.75
2018-09-15T05:23:19.266Z,15.93
2018-09-15T05:24:23.467Z,11.45
2018-09-15T05:25:27.651Z,10.58
2018-09-15T05:26:32.842Z,16.23
2018-09-15T05:27:37.006Z,10.50
2018-09-15T05:28:41.407Z,18.77
2018-09-15T05:29:45.631Z,14.68
2018-09-15T05:30:49.787Z,8.48
2018-09-15T05:31:54.004Z,11.75
2018-09-15T05:32:58.351Z,8.05
2018-09-15T05:34:02.562Z,13.13
2018-09-15T05:35:06.798Z,18.95
2018-09-15T05:36:10.972Z,17.45
2018-09-15T05:37:15.154Z,12.05
2018-09-15T05:38:19.342Z,7.50
2018-09-15T05:39:23.600Z,8.33
2018-09-15T05:40:27.801Z,7.28
2018-09-15T05:41:32.156Z,8.30
2018-09-15T05:42:36.462Z,13.80
2018-09-15T05:43:40.696Z,10.85
2018-09-15T05:44:45.179Z,9.43
2018-09-15T05:45:49.432Z,4.65
2018-09-15T05:46:53.598Z,6.75
2018-09-15T05:47:57.807Z,7.15
2018-09-15T05:49:02.164Z,9.18
2018-09-15T05:50:06.931Z,11.50
2018-09-15T05:51:11.127Z,16.20
2018-09-15T05:52:15.506Z,7.53
2018-09-15T05:53:19.664Z,7.40
2018-09-15T05:54:23.847Z,6.00
2018-09-15T05:55:28.021Z,14.68
2018-09-15T05:56:32.206Z,10.90
2018-09-15T05:57:36.391Z,10.40
2018-09-15T05:58:40.583Z,9.15
2018-09-15T05:59:44.974Z,10.63
2018-09-15T06:00:49.431Z,9.95
2018-09-15T06:01:53.643Z,11.57
2018-09-15T06:02:57.915Z,12.68
2018-09-15T06:04:02.323Z,10.05
2018-09-15T06:05:06.612Z,10.78
2018-09-15T06:06:11.058Z,12.03
2018-09-15T06:07:15.329Z,11.57
2018-09-15T06:08:19.606Z,10.72
2018-09-15T06:09:23.762Z,13.18
2018-09-15T06:10:27.915Z,9.28
2018-09-15T06:11:32.079Z,14.47
2018-09-15T06:12:36.263Z,14.75
2018-09-15T06:13:40.453Z,13.13
2018-09-15T06:14:44.642Z,16.20
2018-09-15T06:15:48.783Z,9.90
2018-09-15T06:16:52.955Z,13.98
2018-09-15T06:17:57.175Z,24.55
2018-09-15T06:19:01.550Z,17.10
2018-09-15T06:20:06.055Z,14.03
2018-09-15T06:21:10.254Z,12.50
2018-09-15T06:22:14.395Z,14.70
2018-09-15T06:23:18.611Z,14.00
2018-09-15T06:24:22.760Z,13.38
2018-09-15T06:25:26.947Z,16.65
2018-09-15T06:26:31.754Z,12.40
2018-09-15T06:27:35.945Z,21.50
2018-09-15T06:28:40.151Z,21.82
2018-09-15T06:29:44.610Z,18.90
2018-09-15T06:30:49.072Z,20.43
2018-09-15T06:31:53.255Z,18.37
2018-09-15T06:32:57.399Z,16.60
2018-09-15T06:34:01.874Z,18.17
2018-09-15T06:35:06.063Z,24.60
2018-09-15T06:36:10.248Z,15.78
2018-09-15T06:37:14.405Z,19.65
2018-09-15T06:38:18.522Z,25.72
2018-09-15T06:39:22.765Z,25.52
2018-09-15T06:40:26.925Z,24.77
2018-09-15T06:41:31.086Z,14.05
2018-09-15T06:42:35.293Z,17.23
2018-09-15T06:43:39.453Z,21.60
2018-09-15T06:44:43.843Z,13.22
2018-09-15T06:45:48.166Z,13.75
2018-09-15T06:46:52.248Z,12.23
2018-09-15T06:47:56.563Z,18.62
2018-09-15T06:49:00.806Z,13.05
2018-09-15T06:50:05.143Z,10.13
2018-09-15T06:51:09.796Z,16.90
2018-09-15T06:52:14.199Z,16.60
2018-09-15T06:53:18.328Z,15.32
2018-09-15T06:54:22.609Z,10.65
2018-09-15T06:55:26.776Z,12.15
2018-09-15T06:56:30.979Z,20.32
2018-09-15T06:57:35.177Z,16.95
2018-09-15T06:58:39.435Z,15.60
2018-09-15T06:59:43.622Z,14.93
2018-09-15T07:00:47.882Z,14.78
2018-09-15T07:01:52.013Z,13.22
2018-09-15T07:02:56.380Z,10.72
2018-09-15T07:04:00.559Z,12.65
2018-09-15T07:05:04.866Z,12.70
2018-09-15T07:06:09.274Z,11.53
2018-09-15T07:07:13.432Z,13.78
2018-09-15T07:08:17.788Z,9.80
2018-09-15T07:09:21.933Z,15.85
2018-09-15T07:10:26.071Z,22.02
2018-09-15T07:11:30.254Z,28.87
2018-09-15T07:12:34.390Z,18.30
2018-09-15T07:13:38.562Z,14.68
2018-09-15T07:14:42.686Z,17.10
2018-09-15T07:15:46.839Z,15.90
2018-09-15T07:16:51.005Z,20.02
2018-09-15T07:17:55.142Z,16.48
2018-09-15T07:18:59.324Z,23.98
2018-09-15T07:20:03.575Z,16.73
2018-09-15T07:21:07.767Z,17.45
2018-09-15T07:22:12.056Z,15.40
2018-09-15T07:23:16.251Z,14.93
2018-09-15T07:24:20.382Z,18.45
2018-09-15T07:25:24.762Z,22.17
2018-09-15T07:26:28.910Z,12.63
2018-09-15T07:27:33.135Z,17.62
2018-09-15T07:28:37.298Z,11.93
2018-09-15T07:29:41.591Z,13.30
2018-09-15T07:30:46.128Z,17.90
2018-09-15T07:31:50.422Z,12.90
2018-09-15T07:32:54.539Z,11.05
2018-09-15T07:33:58.778Z,13.90
2018-09-15T07:35:03.121Z,14.35
2018-09-15T07:36:07.297Z,16.35
2018-09-15T07:37:11.512Z,12.85
2018-09-15T07:38:15.723Z,12.03
2018-09-15T07:39:19.967Z,11.28
2018-09-15T07:40:24.147Z,11.85
2018-09-15T07:41:28.365Z,12.33
2018-09-15T07:42:32.524Z,10.65
2018-09-15T07:43:36.751Z,12.10
2018-09-15T07:44:41.008Z,9.80
2018-09-15T07:45:45.391Z,20.68
2018-09-15T07:46:49.583Z,12.63
2018-09-15T07:47:54.300Z,12.20
2018-09-15T07:48:58.503Z,22.17
2018-09-15T07:50:02.699Z,14.58
2018-09-15T07:51:07.124Z,19.73
2018-09-15T07:52:11.340Z,10.35
2018-09-15T07:53:15.515Z,15.45
2018-09-15T07:54:19.678Z,10.80
2018-09-15T07:55:23.824Z,14.63
2018-09-15T07:56:27.990Z,11.35
2018-09-15T07:57:32.235Z,17.25
2018-09-15T07:58:36.319Z,16.73
2018-09-15T07:59:40.505Z,16.27
2018-09-15T08:00:44.689Z,12.03
2018-09-15T08:01:48.958Z,19.82
2018-09-15T08:02:53.099Z,16.40
2018-09-15T08:03:57.479Z,11.30
2018-09-15T08:05:01.732Z,13.20
2018-09-15T08:06:06.096Z,13.90
2018-09-15T08:07:10.245Z,15.28
2018-09-15T08:08:14.606Z,14.00
2018-09-15T08:09:18.763Z,10.35
2018-09-15T08:10:23.016Z,15.55
2018-09-15T08:11:27.158Z,12.60
2018-09-15T08:12:31.599Z,18.67
2018-09-15T08:13:36.041Z,15.10
2018-09-15T08:14:40.219Z,17.02
2018-09-15T08:15:44.453Z,10.98
2018-09-15T08:16:48.615Z,14.25
2018-09-15T08:17:53.068Z,19.67
2018-09-15T08:18:57.468Z,10.28
2018-09-15T08:20:01.681Z,18.85
2018-09-15T08:21:05.905Z,8.63
2018-09-15T08:22:10.079Z,9.00
2018-09-15T08:23:14.255Z,18.02
2018-09-15T08:24:18.559Z,12.25
2018-09-15T08:25:22.811Z,16.40
2018-09-15T08:26:27.035Z,8.40
2018-09-15T08:27:31.535Z,9.05
2018-09-15T08:28:35.732Z,13.43
2018-09-15T08:29:40.142Z,12.13
2018-09-15T08:30:44.291Z,12.25
2018-09-15T08:31:49.246Z,13.78
2018-09-15T08:32:53.380Z,14.05
2018-09-15T08:33:57.592Z,12.03
2018-09-15T08:35:01.993Z,15.08
2018-09-15T08:36:06.175Z,11.50
2018-09-15T08:37:10.355Z,16.20
2018-09-15T08:38:14.553Z,12.00
2018-09-15T08:39:18.758Z,11.70
2018-09-15T08:40:23.026Z,13.98
2018-09-15T08:41:27.292Z,8.63
2018-09-15T08:42:31.525Z,14.33
2018-09-15T08:43:35.720Z,18.02
2018-09-15T08:44:39.894Z,13.98
2018-09-15T08:45:46.482Z,19.90
2018-09-15T08:46:50.783Z,23.87
2018-09-15T08:47:54.994Z,9.88
2018-09-15T08:48:59.150Z,13.40
2018-09-15T08:50:03.424Z,12.13
2018-09-15T08:51:07.587Z,13.83
2018-09-15T08:52:11.747Z,15.18
2018-09-15T08:53:16.149Z,10.03
2018-09-15T08:54:20.342Z,11.60
2018-09-15T08:55:24.488Z,14.20
2018-09-15T08:56:28.845Z,10.48
2018-09-15T08:57:33.097Z,15.70
2018-09-15T08:58:38.047Z,13.18
2018-09-15T08:59:42.222Z,14.25
2018-09-15T09:00:46.597Z,12.37
2018-09-15T09:01:50.750Z,14.45
2018-09-15T09:02:54.934Z,13.35
2018-09-15T09:03:59.155Z,17.57
2018-09-15T09:05:03.318Z,10.48
2018-09-15T09:06:07.515Z,10.00
2018-09-15T09:07:11.914Z,12.25
2018-09-15T09:08:16.104Z,13.55
2018-09-15T09:09:20.332Z,14.18
2018-09-15T09:10:24.587Z,15.18
2018-09-15T09:11:28.749Z,13.03
2018-09-15T09:12:32.931Z,13.20
2018-09-15T09:13:37.087Z,10.93
2018-09-15T09:14:41.364Z,13.98
2018-09-15T09:15:45.512Z,10.68
2018-09-15T09:16:49.776Z,11.90
2018-09-15T09:17:53.911Z,13.13
2018-09-15T09:18:58.252Z,16.90
2018-09-15T09:20:02.537Z,14.83
2018-09-15T09:21:06.615Z,11.75
2018-09-15T09:22:10.774Z,16.32
2018-09-15T09:23:14.947Z,12.53
2018-09-15T09:24:19.176Z,13.15
2018-09-15T09:25:23.431Z,16.52
2018-09-15T09:26:27.660Z,10.60
2018-09-15T09:27:31.814Z,21.68
2018-09-15T09:28:35.963Z,16.20
2018-09-15T09:29:40.118Z,10.45
2018-09-15T09:30:44.419Z,9.50
2018-09-15T09:31:48.679Z,10.03
2018-09-15T09:32:53.238Z,11.18
2018-09-15T09:33:57.428Z,7.10
2018-09-15T09:35:01.696Z,12.10
2018-09-15T09:36:06.053Z,10.70
2018-09-15T09:37:10.319Z,13.78
2018-09-15T09:38:14.501Z,12.07
2018-09-15T09:39:18.666Z,11.05
2018-09-15T09:40:22.824Z,11.78
2018-09-15T09:41:27.098Z,11.40
2018-09-15T09:42:31.218Z,14.13
2018-09-15T09:43:35.375Z,7.67
2018-09-15T09:44:39.506Z,10.82
2018-09-15T09:45:43.894Z,15.45
2018-09-15T09:46:48.136Z,16.50
2018-09-15T09:47:52.281Z,14.03
2018-09-15T09:48:56.411Z,16.85
2018-09-15T09:50:00.551Z,14.87
2018-09-15T09:51:04.919Z,9.98
2018-09-15T09:52:09.078Z,10.58
2018-09-15T09:53:13.206Z,7.92
2018-09-15T09:54:17.456Z,10.53
2018-09-15T09:55:21.614Z,14.60
2018-09-15T09:56:25.842Z,7.40
2018-09-15T09:57:30.187Z,9.00
2018-09-15T09:58:34.327Z,11.18
2018-09-15T09:59:38.470Z,12.30
2018-09-15T10:00:48.070Z,14.53
2018-09-15T10:01:57.453Z,10.82
2018-09-15T10:03:01.627Z,13.95
2018-09-15T10:04:06.070Z,12.63
2018-09-15T10:05:10.375Z,6.75
2018-09-15T10:06:14.531Z,15.50
2018-09-15T10:07:18.885Z,9.93
2018-09-15T10:08:23.026Z,6.95
2018-09-15T10:09:27.150Z,7.70
2018-09-15T10:10:31.319Z,10.05
2018-09-15T10:11:35.503Z,13.32
2018-09-15T10:12:39.617Z,10.25
2018-09-15T10:13:43.829Z,14.40
2018-09-15T10:14:47.970Z,5.78
2018-09-15T10:15:52.147Z,11.43
2018-09-15T10:16:56.238Z,13.53
2018-09-15T10:18:00.547Z,6.22
2018-09-15T10:19:04.706Z,11.30
2018-09-15T10:20:09.041Z,12.35
2018-09-15T10:21:13.455Z,10.85
2018-09-15T10:22:17.595Z,6.15
2018-09-15T10:23:21.762Z,5.55
2018-09-15T10:24:25.962Z,7.12
2018-09-15T10:25:30.095Z,7.05
2018-09-15T10:26:34.282Z,4.42
2018-09-15T10:27:38.398Z,5.25
2018-09-15T10:28:42.579Z,10.78
2018-09-15T10:29:46.842Z,14.28
2018-09-15T10:30:51.009Z,5.45
2018-09-15T10:31:55.631Z,4.53
2018-09-15T10:32:59.903Z,6.30
2018-09-15T10:34:04.038Z,5.72
2018-09-15T10:35:08.322Z,4.72
2018-09-15T10:36:12.441Z,5.20
2018-09-15T10:37:16.598Z,6.55
2018-09-15T10:38:20.964Z,9.73
2018-09-15T10:39:25.678Z,11.63
2018-09-15T10:40:29.275Z,4.58
2018-09-15T10:41:33.390Z,8.48
2018-09-15T10:42:37.656Z,13.95
2018-09-15T10:43:41.810Z,8.13
2018-09-15T10:44:45.964Z,5.92
2018-09-15T10:45:50.236Z,5.22
2018-09-15T10:46:54.374Z,7.95
2018-09-15T10:47:58.547Z,3.33
2018-09-15T10:49:03.060Z,7.53
2018-09-15T10:50:07.231Z,14.33
2018-09-15T10:51:11.501Z,12.68
2018-09-15T10:52:15.811Z,7.97
2018-09-15T10:53:20.079Z,5.00
2018-09-15T10:54:24.289Z,8.10
2018-09-15T10:55:28.420Z,5.83
2018-09-15T10:56:32.833Z,7.17
2018-09-15T10:57:36.991Z,6.70
2018-09-15T10:58:41.225Z,9.78
2018-09-15T10:59:45.350Z,7.22
2018-09-15T11:00:49.492Z,7.20
2018-09-15T11:01:53.658Z,4.30
2018-09-15T11:02:57.838Z,3.45
2018-09-15T11:04:02.372Z,6.17
2018-09-15T11:05:06.566Z,4.40
2018-09-15T11:06:10.735Z,8.93
2018-09-15T11:07:15.623Z,7.03
2018-09-15T11:08:19.808Z,7.45
2018-09-15T11:09:24.117Z,6.30
2018-09-15T11:10:28.222Z,4.53
2018-09-15T11:11:32.385Z,6.60
2018-09-15T11:12:36.608Z,5.60
2018-09-15T11:13:40.831Z,9.78
2018-09-15T11:14:45.143Z,6.28
2018-09-15T11:15:49.259Z,4.58
2018-09-15T11:16:53.443Z,4.83
2018-09-15T11:17:57.878Z,5.90
2018-09-15T11:19:02.349Z,6.33
2018-09-15T11:20:06.688Z,8.85
2018-09-15T11:21:10.889Z,7.25
2018-09-15T11:22:15.030Z,2.92
2018-09-15T11:23:19.218Z,3.50
2018-09-15T11:24:23.383Z,4.67
2018-09-15T11:25:27.636Z,4.37
2018-09-15T11:26:31.805Z,4.22
2018-09-15T11:27:35.942Z,5.42
2018-09-15T11:28:40.363Z,5.22
2018-09-15T11:29:44.462Z,4.92
2018-09-15T11:30:48.754Z,4.30
2018-09-15T11:31:52.911Z,5.17
2018-09-15T11:32:57.651Z,6.78
2018-09-15T11:34:02.022Z,5.20
2018-09-15T11:35:06.442Z,3.47
2018-09-15T11:36:10.665Z,3.05
2018-09-15T11:37:14.784Z,5.72
2018-09-15T11:38:18.963Z,4.97
2018-09-15T11:39:23.126Z,6.28
2018-09-15T11:40:27.254Z,5.45
2018-09-15T11:41:31.561Z,4.12
2018-09-15T11:42:35.977Z,6.53
2018-09-15T11:43:40.185Z,4.10
2018-09-15T11:44:44.340Z,4.05
2018-09-15T11:45:48.728Z,8.50
2018-09-15T11:46:52.887Z,8.23
2018-09-15T11:47:57.087Z,5.10
2018-09-15T11:49:01.202Z,3.62
2018-09-15T11:50:05.549Z,5.95
2018-09-15T11:51:09.650Z,5.67
2018-09-15T11:52:13.989Z,4.15
2018-09-15T11:53:18.254Z,3.27
2018-09-15T11:54:22.426Z,4.67
2018-09-15T11:55:26.684Z,8.00
2018-09-15T11:56:30.967Z,3.70
2018-09-15T11:57:35.095Z,4.70
2018-09-15T11:58:39.426Z,14.20
2018-09-15T11:59:43.566Z,4.58
2018-09-15T12:00:55.022Z,4.08
2018-09-15T12:01:59.190Z,8.55
2018-09-15T12:03:03.361Z,4.37
2018-09-15T12:04:07.665Z,4.72
2018-09-15T12:05:11.831Z,6.47
2018-09-15T12:06:15.992Z,5.35
2018-09-15T12:07:20.147Z,6.50
2018-09-15T12:08:24.306Z,6.53
2018-09-15T12:09:28.570Z,5.17
2018-09-15T12:10:32.720Z,4.33
2018-09-15T12:11:37.025Z,3.12
2018-09-15T12:12:41.189Z,6.20
2018-09-15T12:13:45.343Z,6.10
2018-09-15T12:14:49.479Z,4.92
2018-09-15T12:15:53.844Z,3.08
2018-09-15T12:16:58.056Z,4.97
2018-09-15T12:18:02.231Z,3.40
2018-09-15T12:19:06.617Z,6.28
2018-09-15T12:20:11.284Z,2.30
2018-09-15T12:21:15.705Z,6.05
2018-09-15T12:22:19.998Z,3.83
2018-09-15T12:23:24.175Z,5.80
2018-09-15T12:24:28.612Z,4.22
2018-09-15T12:25:33.095Z,4.37
2018-09-15T12:26:37.317Z,4.53
2018-09-15T12:27:41.841Z,3.40
2018-09-15T12:28:46.204Z,4.60
2018-09-15T12:29:50.330Z,5.55
2018-09-15T12:30:54.954Z,3.37
2018-09-15T12:31:59.111Z,4.20
2018-09-15T12:33:04.087Z,3.67
2018-09-15T12:34:08.372Z,3.55
2018-09-15T12:35:13.269Z,4.03
2018-09-15T12:36:17.439Z,4.75
2018-09-15T12:37:21.650Z,2.75
2018-09-15T12:38:26.131Z,7.47
2018-09-15T12:39:30.376Z,7.30
2018-09-15T12:40:34.513Z,4.62
2018-09-15T12:41:38.822Z,5.58
2018-09-15T12:42:43.377Z,4.58
2018-09-15T12:43:48.054Z,6.22
2018-09-15T12:44:52.495Z,2.37
2018-09-15T12:45:56.720Z,5.53
2018-09-15T12:47:00.929Z,5.87
2018-09-15T12:48:05.221Z,2.60
2018-09-15T12:49:09.751Z,3.62
2018-09-15T12:50:14.348Z,4.50
2018-09-15T12:51:18.485Z,3.42
2018-09-15T12:52:22.841Z,3.58
2018-09-15T12:53:27.033Z,3.08
2018-09-15T12:54:31.375Z,4.20
2018-09-15T12:55:35.580Z,17.37
2018-09-15T12:56:39.989Z,5.60
2018-09-15T12:57:44.283Z,6.83
2018-09-15T12:58:48.451Z,5.03
2018-09-15T12:59:53.054Z,6.58
2018-09-15T13:00:57.240Z,3.37
2018-09-15T13:02:01.403Z,3.60
2018-09-15T13:03:05.629Z,4.45
2018-09-15T13:04:09.855Z,4.30
2018-09-15T13:05:14.471Z,10.35
2018-09-15T13:06:19.063Z,3.45
2018-09-15T13:07:23.472Z,4.15
2018-09-15T13:08:27.681Z,3.77
2018-09-15T13:09:32.204Z,5.83
2018-09-15T13:10:36.844Z,10.60
2018-09-15T13:11:41.359Z,2.67
2018-09-15T13:12:45.626Z,5.35
2018-09-15T13:13:49.782Z,2.87
2018-09-15T13:14:54.023Z,3.02
2018-09-15T13:15:58.213Z,4.37
2018-09-15T13:17:02.341Z,7.33
2018-09-15T13:18:06.549Z,4.53
2018-09-15T13:19:10.735Z,5.75
2018-09-15T13:20:14.926Z,6.45
2018-09-15T13:21:19.131Z,6.58
2018-09-15T13:22:23.306Z,5.37
2018-09-15T13:23:27.511Z,9.80
2018-09-15T13:24:31.711Z,5.22
2018-09-15T13:25:35.866Z,3.55
2018-09-15T13:26:40.072Z,7.17
2018-09-15T13:27:44.220Z,2.85
2018-09-15T13:28:48.600Z,5.35
2018-09-15T13:29:52.901Z,5.12
2018-09-15T13:30:57.006Z,5.05
2018-09-15T13:32:01.475Z,3.25
2018-09-15T13:33:06.103Z,2.77
2018-09-15T13:34:10.278Z,4.00
2018-09-15T13:35:14.458Z,4.22
2018-09-15T13:36:18.650Z,3.95
2018-09-15T13:37:22.847Z,5.08
2018-09-15T13:38:27.011Z,5.72
2018-09-15T13:39:31.190Z,2.10
2018-09-15T13:40:35.411Z,4.15
2018-09-15T13:41:39.815Z,7.40
2018-09-15T13:42:44.085Z,4.25
2018-09-15T13:43:48.445Z,3.75
2018-09-15T13:44:52.607Z,3.30
2018-09-15T13:45:56.766Z,4.92
2018-09-15T13:47:01.214Z,5.30
2018-09-15T13:48:05.437Z,5.80
2018-09-15T13:49:09.713Z,2.98
2018-09-15T13:50:13.835Z,3.37
2018-09-15T13:51:18.034Z,7.47
2018-09-15T13:52:22.163Z,2.90
2018-09-15T13:53:26.376Z,4.05
2018-09-15T13:54:30.861Z,6.87
2018-09-15T13:55:36.095Z,5.83
2018-09-15T13:56:40.332Z,5.65
2018-09-15T13:57:44.986Z,3.90
2018-09-15T13:58:49.316Z,3.22
2018-09-15T13:59:53.486Z,4.08
2018-09-15T14:00:57.660Z,6.92
2018-09-15T14:02:02.204Z,5.08